Time;durP1;ratioP1;P1;durP2;ratioP2;P2;SDS_P1;SDS_P2;PMS_P1;PMS_P2;Temp;Humidity;BMP_temperature;BMP_pressure;BME280_temperature;BME280_humidity;BME280_pressure;Samples;Min_cycle;Max_cycle;Signal;HPM_P1;HPM_P2
2023/10/31 00:00:32;;;;;;;3.83;1.80;;;;;;;;;;5106713;28;20428;-52
2023/10/31 00:02:59;;;;;;;3.00;1.48;;;;;;;;;;5111606;28;20126;-55
2023/10/31 00:05:25;;;;;;;2.20;1.02;;;;;;;;;;5097225;28;20059;-49
2023/10/31 00:07:53;;;;;;;2.90;1.27;;;;;;;;;;5110044;28;20554;-49
2023/10/31 00:10:20;;;;;;;2.50;1.20;;;;;;;;;;5107414;28;20131;-58
2023/10/31 00:12:47;;;;;;;3.38;0.82;;;;;;;;;;5107577;28;20053;-53
2023/10/31 00:15:14;;;;;;;2.22;1.00;;;;;;;;;;5110914;28;20048;-51
2023/10/31 00:17:41;;;;;;;1.55;0.80;;;;;;;;;;5110902;28;20071;-49
2023/10/31 00:20:08;;;;;;;1.40;0.68;;;;;;;;;;5108579;28;20043;-50
2023/10/31 00:22:35;;;;;;;2.22;0.60;;;;;;;;;;5107735;28;20134;-62
2023/10/31 00:25:03;;;;;;;2.33;1.00;;;;;;;;;;5103426;28;20043;-61
2023/10/31 00:27:30;;;;;;;1.60;0.55;;;;;;;;;;5105017;28;20051;-64
2023/10/31 00:29:57;;;;;;;1.58;0.50;;;;;;;;;;5108666;28;20414;-51
2023/10/31 00:32:25;;;;;;;1.48;0.70;;;;;;;;;;5110669;28;20128;-60
2023/10/31 00:34:52;;;;;;;1.00;0.60;;;;;;;;;;5111056;28;20036;-52
2023/10/31 00:37:19;;;;;;;2.20;0.60;;;;;;;;;;5110039;28;20100;-52
2023/10/31 00:39:45;;;;;;;0.73;0.68;;;;;;;;;;5106112;28;20072;-50
2023/10/31 00:42:14;;;;;;;1.10;0.50;;;;;;;;;;5111300;28;20055;-51
2023/10/31 00:44:41;;;;;;;1.25;0.45;;;;;;;;;;5112839;28;20127;-53
2023/10/31 00:47:07;;;;;;;0.80;0.50;;;;;;;;;;5107523;28;20104;-49
2023/10/31 00:49:34;;;;;;;1.30;0.47;;;;;;;;;;5112368;28;20100;-51
2023/10/31 00:52:01;;;;;;;2.63;0.50;;;;;;;;;;5111472;28;20043;-54
2023/10/31 00:54:27;;;;;;;0.30;0.30;;;;;;;;;;5108299;28;20050;-51
2023/10/31 00:56:54;;;;;;;0.95;0.50;;;;;;;;;;5105064;28;20071;-51
2023/10/31 00:59:22;;;;;;;1.25;0.60;;;;;;;;;;5110319;28;20094;-51
2023/10/31 01:01:49;;;;;;;0.98;0.40;;;;;;;;;;5109876;28;20704;-49
2023/10/31 01:04:15;;;;;;;0.45;0.38;;;;;;;;;;5112040;28;20514;-52
2023/10/31 01:06:42;;;;;;;3.10;0.70;;;;;;;;;;5109663;28;20050;-50
2023/10/31 01:09:09;;;;;;;1.67;0.50;;;;;;;;;;5105605;28;20062;-52
2023/10/31 01:11:36;;;;;;;0.77;0.40;;;;;;;;;;5111477;28;20434;-51
2023/10/31 01:14:04;;;;;;;0.50;0.32;;;;;;;;;;5099652;28;20043;-52
2023/10/31 01:16:32;;;;;;;1.08;0.40;;;;;;;;;;5109919;28;20488;-50
2023/10/31 01:18:59;;;;;;;0.57;0.30;;;;;;;;;;5105282;28;20166;-50
2023/10/31 01:21:26;;;;;;;0.85;0.40;;;;;;;;;;5112219;28;20048;-51
2023/10/31 01:23:52;;;;;;;1.40;0.50;;;;;;;;;;5112505;28;20127;-49
2023/10/31 01:26:19;;;;;;;1.23;0.30;;;;;;;;;;5106695;28;20043;-48
2023/10/31 01:28:46;;;;;;;0.40;0.30;;;;;;;;;;5105856;28;20047;-49
2023/10/31 01:31:12;;;;;;;0.38;0.38;;;;;;;;;;5104009;28;20093;-56
2023/10/31 01:33:40;;;;;;;0.73;0.40;;;;;;;;;;5112289;28;20047;-50
2023/10/31 01:36:08;;;;;;;0.73;0.40;;;;;;;;;;5111798;28;20050;-53
2023/10/31 01:38:35;;;;;;;0.80;0.40;;;;;;;;;;5100675;28;20448;-53
2023/10/31 01:41:02;;;;;;;1.42;0.20;;;;;;;;;;5101442;28;20047;-50
2023/10/31 01:43:33;;;;;;;0.68;0.40;;;;;;;;;;5104322;28;20044;-52
2023/10/31 01:45:59;;;;;;;0.20;0.20;;;;;;;;;;5103273;28;20051;-53
2023/10/31 01:48:29;;;;;;;0.80;0.32;;;;;;;;;;5103195;28;20047;-49
2023/10/31 01:50:59;;;;;;;0.57;0.25;;;;;;;;;;5111931;28;20130;-50
2023/10/31 01:53:26;;;;;;;1.73;0.40;;;;;;;;;;5112137;28;20079;-54
2023/10/31 01:55:55;;;;;;;0.50;0.30;;;;;;;;;;5111860;28;20066;-52
2023/10/31 01:58:29;;;;;;;0.57;0.35;;;;;;;;;;5103650;28;20525;-54
2023/10/31 02:00:56;;;;;;;0.57;0.30;;;;;;;;;;5111478;28;20048;-56
2023/10/31 02:03:23;;;;;;;1.05;0.40;;;;;;;;;;5109301;28;20127;-52
2023/10/31 02:05:52;;;;;;;0.47;0.25;;;;;;;;;;5107273;28;20123;-49
2023/10/31 02:08:20;;;;;;;1.15;0.30;;;;;;;;;;5110152;28;20090;-50
2023/10/31 02:10:46;;;;;;;1.10;0.45;;;;;;;;;;5103190;28;20075;-50
2023/10/31 02:13:13;;;;;;;1.05;0.50;;;;;;;;;;5103167;28;20052;-52
2023/10/31 02:15:40;;;;;;;1.02;0.35;;;;;;;;;;5111538;28;20252;-52
2023/10/31 02:18:08;;;;;;;0.35;0.20;;;;;;;;;;5111147;28;20551;-51
2023/10/31 02:20:35;;;;;;;1.92;0.50;;;;;;;;;;5108811;28;20098;-52
2023/10/31 02:23:04;;;;;;;0.40;0.30;;;;;;;;;;5111611;28;20084;-52
2023/10/31 02:25:30;;;;;;;1.42;0.50;;;;;;;;;;5111486;28;20130;-51
2023/10/31 02:27:57;;;;;;;0.20;0.20;;;;;;;;;;5104984;28;20123;-51
2023/10/31 02:30:24;;;;;;;1.30;0.40;;;;;;;;;;5110035;28;20511;-52
2023/10/31 02:32:51;;;;;;;0.88;0.30;;;;;;;;;;5102181;28;20091;-51
2023/10/31 02:35:19;;;;;;;0.20;0.20;;;;;;;;;;5111253;28;20079;-51
2023/10/31 02:37:46;;;;;;;2.13;0.35;;;;;;;;;;5109841;28;20043;-53
2023/10/31 02:40:14;;;;;;;0.55;0.30;;;;;;;;;;5107666;28;20127;-54
2023/10/31 02:42:41;;;;;;;0.35;0.22;;;;;;;;;;5103742;28;20054;-53
2023/10/31 02:45:09;;;;;;;1.25;0.20;;;;;;;;;;5111284;28;20044;-50
2023/10/31 02:47:35;;;;;;;0.85;0.38;;;;;;;;;;5107106;28;20408;-49
2023/10/31 02:50:02;;;;;;;0.70;0.30;;;;;;;;;;5102062;28;20138;-52
2023/10/31 02:52:29;;;;;;;0.30;0.20;;;;;;;;;;5107850;28;20080;-49
2023/10/31 02:54:55;;;;;;;0.20;0.20;;;;;;;;;;5105648;28;20136;-51
2023/10/31 02:57:23;;;;;;;0.70;0.22;;;;;;;;;;5110964;28;20140;-49
2023/10/31 02:59:50;;;;;;;0.55;0.20;;;;;;;;;;5109281;28;20048;-51
2023/10/31 03:02:17;;;;;;;0.20;0.20;;;;;;;;;;5109800;28;20046;-52
2023/10/31 03:04:43;;;;;;;0.60;0.30;;;;;;;;;;5110164;28;20051;-51
2023/10/31 03:07:10;;;;;;;0.80;0.30;;;;;;;;;;5109482;28;20464;-49
2023/10/31 03:09:37;;;;;;;1.02;0.30;;;;;;;;;;5106562;28;20043;-51
2023/10/31 03:12:04;;;;;;;1.45;0.22;;;;;;;;;;5101310;28;20119;-51
2023/10/31 03:14:32;;;;;;;1.67;0.38;;;;;;;;;;5107791;28;20080;-51
2023/10/31 03:16:58;;;;;;;0.40;0.20;;;;;;;;;;5100243;28;20131;-54
2023/10/31 03:19:25;;;;;;;1.15;0.40;;;;;;;;;;5108505;28;20126;-54
2023/10/31 03:21:52;;;;;;;0.20;0.20;;;;;;;;;;5104999;28;20047;-51
2023/10/31 03:24:18;;;;;;;0.40;0.20;;;;;;;;;;5106034;28;20135;-52
2023/10/31 03:26:45;;;;;;;2.13;0.40;;;;;;;;;;5107381;28;20090;-52
2023/10/31 03:29:12;;;;;;;1.23;0.35;;;;;;;;;;5097087;28;20048;-52
2023/10/31 03:31:40;;;;;;;0.30;0.20;;;;;;;;;;5103350;28;20080;-51
2023/10/31 03:34:07;;;;;;;1.35;0.35;;;;;;;;;;5102902;28;20547;-54
2023/10/31 03:36:33;;;;;;;0.80;0.40;;;;;;;;;;5103939;28;20073;-53
2023/10/31 03:39:00;;;;;;;0.20;0.20;;;;;;;;;;5103920;28;20067;-55
2023/10/31 03:41:27;;;;;;;0.93;0.20;;;;;;;;;;5114312;28;20148;-54
2023/10/31 03:43:53;;;;;;;0.77;0.28;;;;;;;;;;5111346;28;20108;-50
2023/10/31 03:46:20;;;;;;;0.93;0.30;;;;;;;;;;5112060;28;20480;-51
2023/10/31 03:48:48;;;;;;;0.10;0.10;;;;;;;;;;5110659;28;20126;-50
2023/10/31 03:51:15;;;;;;;0.30;0.30;;;;;;;;;;5113496;28;20051;-54
2023/10/31 03:53:41;;;;;;;0.35;0.30;;;;;;;;;;5108061;28;20479;-54
2023/10/31 03:56:08;;;;;;;1.10;0.30;;;;;;;;;;5110336;28;20513;-49
2023/10/31 03:58:35;;;;;;;0.22;0.20;;;;;;;;;;5114164;28;20053;-53
2023/10/31 04:01:02;;;;;;;0.50;0.20;;;;;;;;;;5114301;28;20398;-53
2023/10/31 04:03:29;;;;;;;0.93;0.30;;;;;;;;;;5103364;28;20048;-48
2023/10/31 04:05:57;;;;;;;1.75;0.50;;;;;;;;;;5108516;28;20130;-53
2023/10/31 04:08:23;;;;;;;0.88;0.45;;;;;;;;;;5108069;28;20044;-50
2023/10/31 04:10:50;;;;;;;0.30;0.30;;;;;;;;;;5114141;28;20477;-51
2023/10/31 04:13:17;;;;;;;1.23;0.43;;;;;;;;;;5113043;28;20527;-54
2023/10/31 04:15:43;;;;;;;0.52;0.40;;;;;;;;;;5108004;28;20091;-55
2023/10/31 04:18:10;;;;;;;0.85;0.32;;;;;;;;;;5112945;28;20090;-53
2023/10/31 04:20:36;;;;;;;0.68;0.30;;;;;;;;;;5109739;28;20080;-54
2023/10/31 04:23:05;;;;;;;1.33;0.40;;;;;;;;;;5108202;28;20040;-51
2023/10/31 04:25:32;;;;;;;0.68;0.35;;;;;;;;;;5105567;28;20086;-52
2023/10/31 04:27:58;;;;;;;0.80;0.40;;;;;;;;;;5111388;28;20040;-53
2023/10/31 04:30:26;;;;;;;1.60;0.40;;;;;;;;;;5114038;28;20409;-58
2023/10/31 04:32:53;;;;;;;1.30;0.43;;;;;;;;;;5112393;28;20096;-55
2023/10/31 04:35:19;;;;;;;1.27;0.40;;;;;;;;;;5110074;28;20131;-51
2023/10/31 04:37:46;;;;;;;0.70;0.30;;;;;;;;;;5113642;28;20048;-53
2023/10/31 04:40:14;;;;;;;2.00;0.60;;;;;;;;;;5112521;28;20054;-57
2023/10/31 04:42:41;;;;;;;0.50;0.35;;;;;;;;;;5113770;28;20075;-57
2023/10/31 04:45:09;;;;;;;1.58;0.40;;;;;;;;;;5113919;28;20047;-58
2023/10/31 04:47:36;;;;;;;1.30;0.50;;;;;;;;;;5113476;28;20134;-57
2023/10/31 04:50:02;;;;;;;1.02;0.47;;;;;;;;;;5113410;28;20133;-57
2023/10/31 04:52:29;;;;;;;2.47;0.50;;;;;;;;;;5113570;28;20087;-56
2023/10/31 04:54:56;;;;;;;1.55;0.60;;;;;;;;;;5113476;28;20050;-53
2023/10/31 04:57:24;;;;;;;1.20;0.50;;;;;;;;;;5113550;28;20504;-55
2023/10/31 04:59:53;;;;;;;0.93;0.40;;;;;;;;;;5113573;28;20071;-57
2023/10/31 05:02:22;;;;;;;2.28;0.47;;;;;;;;;;5113522;28;20405;-54
2023/10/31 05:04:50;;;;;;;1.80;0.70;;;;;;;;;;5113103;28;20047;-57
2023/10/31 05:07:17;;;;;;;1.42;0.55;;;;;;;;;;5113188;28;20055;-57
2023/10/31 05:09:44;;;;;;;2.42;0.80;;;;;;;;;;5113358;28;20522;-57
2023/10/31 05:12:11;;;;;;;2.78;0.60;;;;;;;;;;5113357;28;20510;-55
2023/10/31 05:14:40;;;;;;;2.38;0.68;;;;;;;;;;5113488;28;20131;-53
2023/10/31 05:17:07;;;;;;;0.80;0.60;;;;;;;;;;5112912;28;20132;-54
2023/10/31 05:19:34;;;;;;;3.58;0.65;;;;;;;;;;5092834;28;20428;-53
2023/10/31 05:22:00;;;;;;;2.08;0.60;;;;;;;;;;5092703;28;20470;-52
2023/10/31 05:24:27;;;;;;;3.45;0.77;;;;;;;;;;5093013;28;20133;-55
2023/10/31 05:26:54;;;;;;;2.15;0.82;;;;;;;;;;5092942;28;20131;-58
2023/10/31 05:29:21;;;;;;;2.22;0.73;;;;;;;;;;5092770;28;20044;-55
2023/10/31 05:31:49;;;;;;;2.65;1.05;;;;;;;;;;5092171;28;20131;-52
2023/10/31 05:34:15;;;;;;;4.60;1.00;;;;;;;;;;5092126;28;20124;-53
2023/10/31 05:36:42;;;;;;;2.70;1.00;;;;;;;;;;5091919;28;20051;-56
2023/10/31 05:39:09;;;;;;;1.65;0.85;;;;;;;;;;5092361;28;20043;-57
2023/10/31 05:41:36;;;;;;;1.80;1.02;;;;;;;;;;5092488;28;20060;-55
2023/10/31 05:44:03;;;;;;;4.32;1.00;;;;;;;;;;5092186;28;20067;-56
2023/10/31 05:46:30;;;;;;;2.65;0.95;;;;;;;;;;5092141;28;20055;-57
2023/10/31 05:48:58;;;;;;;7.35;1.05;;;;;;;;;;5091808;28;20083;-56
2023/10/31 05:51:26;;;;;;;3.15;0.80;;;;;;;;;;5091854;28;20127;-55
2023/10/31 05:53:53;;;;;;;1.55;0.70;;;;;;;;;;5092070;28;20059;-55
2023/10/31 05:56:19;;;;;;;1.90;0.80;;;;;;;;;;5092137;28;20075;-56
2023/10/31 05:58:46;;;;;;;2.05;0.90;;;;;;;;;;5091763;28;20108;-58
2023/10/31 06:01:13;;;;;;;2.05;0.80;;;;;;;;;;5092075;28;20094;-53
2023/10/31 06:03:43;;;;;;;1.92;0.73;;;;;;;;;;5092377;28;20130;-52
2023/10/31 06:06:12;;;;;;;1.63;0.90;;;;;;;;;;5092386;28;20499;-54
2023/10/31 06:08:38;;;;;;;1.92;1.00;;;;;;;;;;5091787;28;20131;-58
2023/10/31 06:11:05;;;;;;;3.17;1.00;;;;;;;;;;5092059;28;20136;-54
2023/10/31 06:13:32;;;;;;;2.75;0.90;;;;;;;;;;5092207;28;20082;-55
2023/10/31 06:15:59;;;;;;;3.72;1.05;;;;;;;;;;5091959;28;20403;-57
2023/10/31 06:18:26;;;;;;;2.28;1.05;;;;;;;;;;5091723;28;20047;-57
2023/10/31 06:20:53;;;;;;;2.35;1.00;;;;;;;;;;5092009;28;20055;-57
2023/10/31 06:23:21;;;;;;;2.40;0.80;;;;;;;;;;5091946;28;20735;-58
2023/10/31 06:25:48;;;;;;;3.00;0.90;;;;;;;;;;5092012;28;20134;-58
2023/10/31 06:28:14;;;;;;;1.75;0.90;;;;;;;;;;5091820;28;20127;-55
2023/10/31 06:30:41;;;;;;;3.22;0.90;;;;;;;;;;5091607;28;20052;-54
2023/10/31 06:33:08;;;;;;;2.67;0.82;;;;;;;;;;5091896;28;20415;-56
2023/10/31 06:35:35;;;;;;;2.10;1.10;;;;;;;;;;5091518;28;20072;-52
2023/10/31 06:38:02;;;;;;;2.28;0.82;;;;;;;;;;5091596;28;20105;-58
2023/10/31 06:40:30;;;;;;;2.67;1.00;;;;;;;;;;5091807;28;20044;-55
2023/10/31 06:42:57;;;;;;;2.17;0.95;;;;;;;;;;5091904;28;20080;-54
2023/10/31 06:45:23;;;;;;;1.90;0.88;;;;;;;;;;5092425;28;20113;-55
2023/10/31 06:47:50;;;;;;;1.50;1.10;;;;;;;;;;5092275;28;20102;-57
2023/10/31 06:50:17;;;;;;;2.10;1.00;;;;;;;;;;5092466;28;20091;-49
2023/10/31 06:52:43;;;;;;;1.60;0.80;;;;;;;;;;5111288;28;20579;-51
2023/10/31 06:55:10;;;;;;;3.40;1.10;;;;;;;;;;5111311;28;20404;-56
2023/10/31 06:57:38;;;;;;;2.92;1.10;;;;;;;;;;5108081;28;20570;-53
2023/10/31 07:00:08;;;;;;;2.55;0.80;;;;;;;;;;5110543;28;20503;-48
2023/10/31 07:02:35;;;;;;;3.35;1.33;;;;;;;;;;5103496;28;20050;-51
2023/10/31 07:05:02;;;;;;;3.63;1.02;;;;;;;;;;5115217;28;20486;-53
2023/10/31 07:07:29;;;;;;;8.13;1.33;;;;;;;;;;5107832;28;20058;-49
2023/10/31 07:09:56;;;;;;;2.25;1.00;;;;;;;;;;5108901;28;20502;-53
2023/10/31 07:12:23;;;;;;;2.13;0.90;;;;;;;;;;5113910;28;20459;-53
2023/10/31 07:14:51;;;;;;;1.40;0.80;;;;;;;;;;5115373;28;20473;-55
2023/10/31 07:17:17;;;;;;;3.30;1.27;;;;;;;;;;5114162;28;20075;-51
2023/10/31 07:19:44;;;;;;;3.75;1.10;;;;;;;;;;5104435;28;20071;-51
2023/10/31 07:22:11;;;;;;;3.58;1.20;;;;;;;;;;5110069;28;20075;-52
2023/10/31 07:24:37;;;;;;;1.38;0.73;;;;;;;;;;5115669;28;20410;-55
2023/10/31 07:27:04;;;;;;;4.50;1.00;;;;;;;;;;5114022;28;20048;-49
2023/10/31 07:29:31;;;;;;;4.03;1.33;;;;;;;;;;5108666;28;20511;-54
2023/10/31 07:31:59;;;;;;;4.00;1.23;;;;;;;;;;5107266;27;20138;-54
2023/10/31 07:34:26;;;;;;;3.38;1.00;;;;;;;;;;5111203;28;20068;-58
2023/10/31 07:36:52;;;;;;;3.22;1.00;;;;;;;;;;5115195;28;20411;-57
2023/10/31 07:39:19;;;;;;;2.35;0.90;;;;;;;;;;5107781;28;20046;-51
2023/10/31 07:41:46;;;;;;;3.28;1.25;;;;;;;;;;5110250;28;20204;-54
2023/10/31 07:44:13;;;;;;;1.83;0.85;;;;;;;;;;5106414;27;20079;-52
2023/10/31 07:46:39;;;;;;;3.05;1.48;;;;;;;;;;5114664;28;20040;-54
2023/10/31 07:49:07;;;;;;;1.33;0.70;;;;;;;;;;5108849;28;20051;-53
2023/10/31 07:51:34;;;;;;;3.08;1.08;;;;;;;;;;5106268;28;20079;-55
2023/10/31 07:54:01;;;;;;;3.17;1.15;;;;;;;;;;5114660;28;20465;-56
2023/10/31 07:56:28;;;;;;;3.90;1.77;;;;;;;;;;5095378;28;20113;-53
2023/10/31 07:58:55;;;;;;;2.13;1.00;;;;;;;;;;5107826;28;20502;-54
2023/10/31 08:01:23;;;;;;;2.55;1.00;;;;;;;;;;5109428;28;20047;-52
2023/10/31 08:03:50;;;;;;;3.28;0.90;;;;;;;;;;5110347;27;20124;-53
2023/10/31 08:06:18;;;;;;;3.20;0.85;;;;;;;;;;5110036;28;20055;-54
2023/10/31 08:08:45;;;;;;;1.75;0.85;;;;;;;;;;5106844;28;20180;-52
2023/10/31 08:11:12;;;;;;;2.17;0.90;;;;;;;;;;5107091;28;20505;-52
2023/10/31 08:13:39;;;;;;;4.10;1.02;;;;;;;;;;5113302;28;20227;-55
2023/10/31 08:16:07;;;;;;;2.10;0.75;;;;;;;;;;5109566;28;20414;-55
2023/10/31 08:18:34;;;;;;;2.60;0.93;;;;;;;;;;5109639;28;20076;-55
2023/10/31 08:21:00;;;;;;;3.47;1.10;;;;;;;;;;5108149;28;20126;-54
2023/10/31 08:23:29;;;;;;;5.10;1.27;;;;;;;;;;5106630;28;20134;-50
2023/10/31 08:25:56;;;;;;;4.13;1.55;;;;;;;;;;5107198;28;20035;-50
2023/10/31 08:28:23;;;;;;;3.30;1.20;;;;;;;;;;5108421;28;20294;-53
2023/10/31 08:30:50;;;;;;;2.85;1.00;;;;;;;;;;5102746;28;20039;-55
2023/10/31 08:33:17;;;;;;;1.63;0.80;;;;;;;;;;5109984;28;20043;-52
2023/10/31 08:35:44;;;;;;;2.97;0.93;;;;;;;;;;5106392;28;20543;-51
2023/10/31 08:38:13;;;;;;;2.67;0.98;;;;;;;;;;5110982;28;20530;-54
2023/10/31 08:40:41;;;;;;;3.00;0.80;;;;;;;;;;5109031;28;20133;-52
2023/10/31 08:43:09;;;;;;;3.60;0.80;;;;;;;;;;5106584;28;20155;-55
2023/10/31 08:45:36;;;;;;;2.85;1.13;;;;;;;;;;5105729;28;20055;-53
2023/10/31 08:48:09;;;;;;;1.75;0.75;;;;;;;;;;5104379;28;20052;-54
2023/10/31 08:50:35;;;;;;;1.48;0.70;;;;;;;;;;5106031;28;20097;-51
2023/10/31 08:53:02;;;;;;;2.58;0.88;;;;;;;;;;5104795;28;21833;-50
2023/10/31 08:55:29;;;;;;;3.15;0.90;;;;;;;;;;5106999;28;20044;-53
2023/10/31 08:57:57;;;;;;;2.72;1.17;;;;;;;;;;5110605;28;20398;-51
2023/10/31 09:00:24;;;;;;;4.60;0.93;;;;;;;;;;5104047;28;20049;-58
2023/10/31 09:02:51;;;;;;;2.95;1.20;;;;;;;;;;5104629;28;20051;-63
2023/10/31 09:05:18;;;;;;;3.45;1.02;;;;;;;;;;5104902;28;20540;-59
2023/10/31 09:07:45;;;;;;;2.78;1.15;;;;;;;;;;5109961;28;20529;-55
2023/10/31 09:10:12;;;;;;;2.67;0.70;;;;;;;;;;5108486;28;20052;-65
2023/10/31 09:12:39;;;;;;;2.33;0.80;;;;;;;;;;5111201;28;20074;-65
2023/10/31 09:15:09;;;;;;;1.80;0.80;;;;;;;;;;5109458;28;20079;-60
2023/10/31 09:17:36;;;;;;;5.13;1.47;;;;;;;;;;5108690;28;20050;-63
2023/10/31 09:20:03;;;;;;;2.63;1.10;;;;;;;;;;5102416;28;20511;-56
2023/10/31 09:22:29;;;;;;;2.75;0.90;;;;;;;;;;5097837;28;20384;-49
2023/10/31 09:24:56;;;;;;;3.00;1.10;;;;;;;;;;5106851;28;20111;-57
2023/10/31 09:27:23;;;;;;;4.35;1.30;;;;;;;;;;5104066;28;20100;-54
2023/10/31 09:29:51;;;;;;;5.05;1.20;;;;;;;;;;5102372;28;20070;-54
2023/10/31 09:32:19;;;;;;;5.18;1.20;;;;;;;;;;5102456;28;20805;-52
2023/10/31 09:34:46;;;;;;;4.78;1.17;;;;;;;;;;5104987;28;20044;-49
2023/10/31 09:37:12;;;;;;;3.40;1.10;;;;;;;;;;5092707;28;20067;-53
2023/10/31 09:39:39;;;;;;;2.35;1.08;;;;;;;;;;5102900;28;20052;-53
2023/10/31 09:42:06;;;;;;;2.58;1.08;;;;;;;;;;5097316;28;20707;-54
2023/10/31 09:44:33;;;;;;;3.20;1.10;;;;;;;;;;5107217;28;20402;-52
2023/10/31 09:47:01;;;;;;;3.08;0.93;;;;;;;;;;5107252;28;20475;-53
2023/10/31 09:49:29;;;;;;;4.40;1.17;;;;;;;;;;5093762;28;20566;-54
2023/10/31 09:51:56;;;;;;;2.15;1.10;;;;;;;;;;5107700;28;20051;-53
2023/10/31 09:54:24;;;;;;;2.65;1.10;;;;;;;;;;5109684;28;20082;-52
2023/10/31 09:56:51;;;;;;;5.00;0.90;;;;;;;;;;5109385;28;20063;-51
2023/10/31 09:59:18;;;;;;;5.13;1.17;;;;;;;;;;5102464;28;20143;-52
2023/10/31 10:01:45;;;;;;;2.63;0.95;;;;;;;;;;5101667;28;20046;-55
2023/10/31 10:04:12;;;;;;;2.80;1.00;;;;;;;;;;5109108;28;20351;-54
2023/10/31 10:06:51;;;;;;;3.83;1.20;;;;;;;;;;5106136;28;20147;-50
2023/10/31 10:09:18;;;;;;;6.97;1.25;;;;;;;;;;5103119;28;20492;-56
2023/10/31 10:11:45;;;;;;;3.10;0.95;;;;;;;;;;5107836;28;20043;-53
2023/10/31 10:14:13;;;;;;;2.65;0.93;;;;;;;;;;5107983;28;20078;-51
2023/10/31 10:16:39;;;;;;;3.72;1.00;;;;;;;;;;5108701;28;20555;-53
2023/10/31 10:19:19;;;;;;;2.53;0.80;;;;;;;;;;5102426;28;20123;-52
2023/10/31 10:21:51;;;;;;;2.72;1.00;;;;;;;;;;5108408;28;20040;-50
2023/10/31 10:24:18;;;;;;;4.93;0.93;;;;;;;;;;5108169;28;20136;-52
2023/10/31 10:26:44;;;;;;;3.20;1.05;;;;;;;;;;5095968;28;20476;-52
2023/10/31 10:29:11;;;;;;;3.88;1.38;;;;;;;;;;5108751;28;20126;-53
2023/10/31 10:31:38;;;;;;;3.95;1.13;;;;;;;;;;5106929;28;20066;-49
2023/10/31 10:34:04;;;;;;;3.47;1.00;;;;;;;;;;5101075;28;20131;-52
2023/10/31 10:36:33;;;;;;;2.50;0.90;;;;;;;;;;5104953;28;20190;-55
2023/10/31 10:39:01;;;;;;;3.22;1.20;;;;;;;;;;5111868;28;20062;-53
2023/10/31 10:41:29;;;;;;;1.85;0.80;;;;;;;;;;5107518;28;20043;-50
2023/10/31 10:43:57;;;;;;;4.43;1.02;;;;;;;;;;5111191;28;20135;-56
2023/10/31 10:46:26;;;;;;;2.50;0.90;;;;;;;;;;5108273;28;20130;-51
2023/10/31 10:48:57;;;;;;;5.88;1.27;;;;;;;;;;5113362;28;20047;-51
2023/10/31 10:51:30;;;;;;;3.50;1.23;;;;;;;;;;5108053;28;20091;-53
2023/10/31 10:54:02;;;;;;;2.65;0.90;;;;;;;;;;5109569;28;20054;-49
2023/10/31 10:56:37;;;;;;;1.60;0.90;;;;;;;;;;5108891;28;20052;-53
2023/10/31 10:59:08;;;;;;;3.60;1.00;;;;;;;;;;5106557;27;20467;-52
2023/10/31 11:01:36;;;;;;;2.40;0.80;;;;;;;;;;5102015;27;20433;-62
2023/10/31 11:04:03;;;;;;;4.80;0.95;;;;;;;;;;5105847;28;20047;-55
2023/10/31 11:06:31;;;;;;;5.40;1.20;;;;;;;;;;5110150;28;20146;-57
2023/10/31 11:08:59;;;;;;;2.75;1.00;;;;;;;;;;5109991;28;20047;-55
2023/10/31 11:11:26;;;;;;;3.47;1.10;;;;;;;;;;5100557;28;20134;-52
2023/10/31 11:13:56;;;;;;;3.80;1.10;;;;;;;;;;5102681;27;20520;-54
2023/10/31 11:16:30;;;;;;;16.10;12.85;;;;;;;;;;5109281;28;20048;-55
2023/10/31 11:18:57;;;;;;;5.35;3.20;;;;;;;;;;5111049;28;20127;-52
2023/10/31 11:21:24;;;;;;;29.33;22.45;;;;;;;;;;5110626;28;20050;-53
2023/10/31 11:23:58;;;;;;;12.88;7.72;;;;;;;;;;5106801;28;20035;-52
2023/10/31 11:26:26;;;;;;;8.50;4.57;;;;;;;;;;5111424;28;20132;-55
2023/10/31 11:29:04;;;;;;;2.90;1.25;;;;;;;;;;5109672;28;20062;-55
2023/10/31 11:31:31;;;;;;;3.20;0.80;;;;;;;;;;5105572;27;20683;-51
2023/10/31 11:33:58;;;;;;;3.22;0.80;;;;;;;;;;5105391;28;20075;-57
2023/10/31 11:36:25;;;;;;;2.10;0.85;;;;;;;;;;5109451;28;20130;-56
2023/10/31 11:39:14;;;;;;;4.85;0.90;;;;;;;;;;5107537;28;20126;-54
2023/10/31 11:41:41;;;;;;;2.65;0.90;;;;;;;;;;5110856;28;20082;-58
2023/10/31 11:44:10;;;;;;;4.60;0.90;;;;;;;;;;5106009;28;20521;-56
2023/10/31 11:46:37;;;;;;;4.35;1.20;;;;;;;;;;5101526;28;20071;-57
2023/10/31 11:49:05;;;;;;;3.42;1.10;;;;;;;;;;5093433;28;20036;-55
2023/10/31 11:51:32;;;;;;;2.45;0.82;;;;;;;;;;5102667;28;20059;-58
2023/10/31 11:54:00;;;;;;;3.00;0.88;;;;;;;;;;5099187;28;20036;-62
2023/10/31 11:56:27;;;;;;;4.20;1.20;;;;;;;;;;5097789;28;20044;-53
2023/10/31 11:59:02;;;;;;;4.45;1.02;;;;;;;;;;5103031;28;20540;-56
2023/10/31 12:01:30;;;;;;;2.70;1.10;;;;;;;;;;5101881;28;20063;-55
2023/10/31 12:03:57;;;;;;;2.97;0.93;;;;;;;;;;5106936;28;20482;-58
2023/10/31 12:06:24;;;;;;;3.05;0.85;;;;;;;;;;5102373;28;20505;-57
2023/10/31 12:08:51;;;;;;;3.45;1.13;;;;;;;;;;5104623;28;20062;-57
2023/10/31 12:11:19;;;;;;;3.60;0.82;;;;;;;;;;5108778;28;20047;-54
2023/10/31 12:13:54;;;;;;;4.22;1.50;;;;;;;;;;5094086;28;20490;-54
2023/10/31 12:16:25;;;;;;;2.13;0.70;;;;;;;;;;5095619;28;20426;-57
2023/10/31 12:18:57;;;;;;;5.35;1.00;;;;;;;;;;5099088;28;20047;-53
2023/10/31 12:21:37;;;;;;;2.83;1.00;;;;;;;;;;5098356;28;20071;-58
2023/10/31 12:24:05;;;;;;;4.50;1.55;;;;;;;;;;5101539;28;20052;-58
2023/10/31 12:26:34;;;;;;;6.47;1.30;;;;;;;;;;5094169;28;20522;-58
2023/10/31 12:29:11;;;;;;;1.85;0.90;;;;;;;;;;5108991;28;20055;-57
2023/10/31 12:31:41;;;;;;;3.38;0.90;;;;;;;;;;5105855;28;20087;-58
2023/10/31 12:34:10;;;;;;;2.00;0.90;;;;;;;;;;5111618;28;20043;-56
2023/10/31 12:36:38;;;;;;;3.15;0.80;;;;;;;;;;5110459;28;20083;-57
2023/10/31 12:39:09;;;;;;;3.35;1.08;;;;;;;;;;5108157;28;20128;-58
2023/10/31 12:41:36;;;;;;;2.40;0.90;;;;;;;;;;5106046;27;20048;-58
2023/10/31 12:44:04;;;;;;;2.70;0.85;;;;;;;;;;5103908;28;20533;-55
2023/10/31 12:46:32;;;;;;;1.90;0.70;;;;;;;;;;5108890;28;20098;-56
2023/10/31 12:48:59;;;;;;;3.38;1.05;;;;;;;;;;5111679;28;20542;-56
2023/10/31 12:51:27;;;;;;;5.13;0.80;;;;;;;;;;5108987;28;20090;-57
2023/10/31 12:53:55;;;;;;;2.45;0.90;;;;;;;;;;5111154;28;20127;-57
2023/10/31 12:56:39;;;;;;;5.22;1.30;;;;;;;;;;5107205;28;20062;-57
2023/10/31 12:59:07;;;;;;;2.60;0.95;;;;;;;;;;5106823;28;20039;-58
2023/10/31 13:01:34;;;;;;;3.13;0.90;;;;;;;;;;5107781;28;20101;-56
2023/10/31 13:04:01;;;;;;;1.80;0.80;;;;;;;;;;5105709;28;20138;-57
2023/10/31 13:06:29;;;;;;;2.08;0.73;;;;;;;;;;5108628;28;20051;-57
2023/10/31 13:08:57;;;;;;;1.83;0.70;;;;;;;;;;5105174;28;20044;-56
2023/10/31 13:11:25;;;;;;;2.72;0.80;;;;;;;;;;5108578;28;20052;-55
2023/10/31 13:13:52;;;;;;;2.22;0.80;;;;;;;;;;5102903;28;20487;-56
2023/10/31 13:16:19;;;;;;;1.80;0.75;;;;;;;;;;5110591;28;20108;-56
2023/10/31 13:18:46;;;;;;;1.63;0.70;;;;;;;;;;5109801;28;20074;-57
2023/10/31 13:21:14;;;;;;;1.25;0.60;;;;;;;;;;5109350;28;20090;-56
2023/10/31 13:23:45;;;;;;;2.47;0.63;;;;;;;;;;5110540;28;20047;-55
2023/10/31 13:26:11;;;;;;;1.30;0.60;;;;;;;;;;5110720;28;20051;-57
2023/10/31 13:28:39;;;;;;;1.63;0.50;;;;;;;;;;5109558;28;20043;-56
2023/10/31 13:31:06;;;;;;;2.75;0.60;;;;;;;;;;5108055;28;20040;-56
2023/10/31 13:33:33;;;;;;;2.20;0.90;;;;;;;;;;5108258;28;20044;-55
2023/10/31 13:35:59;;;;;;;3.88;1.23;;;;;;;;;;5108783;28;20035;-57
2023/10/31 13:38:26;;;;;;;2.90;0.80;;;;;;;;;;5109740;28;20083;-54
2023/10/31 13:40:54;;;;;;;1.48;0.60;;;;;;;;;;5107649;28;20035;-54
2023/10/31 13:43:21;;;;;;;2.95;0.90;;;;;;;;;;5109500;28;20052;-55
2023/10/31 13:45:48;;;;;;;3.00;0.90;;;;;;;;;;5109150;28;20119;-56
2023/10/31 13:48:14;;;;;;;2.15;0.80;;;;;;;;;;5108600;28;20066;-56
2023/10/31 13:50:42;;;;;;;3.55;1.25;;;;;;;;;;5106550;28;20075;-56
2023/10/31 13:53:08;;;;;;;1.90;0.95;;;;;;;;;;5109881;28;20432;-54
2023/10/31 13:55:36;;;;;;;2.63;0.90;;;;;;;;;;5108085;28;20046;-54
2023/10/31 13:58:04;;;;;;;2.10;0.80;;;;;;;;;;5110311;28;20239;-55
2023/10/31 14:00:31;;;;;;;3.30;0.90;;;;;;;;;;5105106;28;20054;-63
2023/10/31 14:02:58;;;;;;;1.95;0.63;;;;;;;;;;5105108;28;20126;-65
2023/10/31 14:05:24;;;;;;;2.67;1.00;;;;;;;;;;5104058;28;20138;-58
2023/10/31 14:07:51;;;;;;;1.15;0.70;;;;;;;;;;5109283;28;20100;-57
2023/10/31 14:10:19;;;;;;;1.52;0.60;;;;;;;;;;5109206;28;20039;-53
2023/10/31 14:12:46;;;;;;;2.20;0.85;;;;;;;;;;5102973;28;20058;-57
2023/10/31 14:15:15;;;;;;;0.90;0.70;;;;;;;;;;5106309;28;20052;-57
2023/10/31 14:17:41;;;;;;;1.13;0.70;;;;;;;;;;5105340;28;20078;-57
2023/10/31 14:20:09;;;;;;;1.00;0.55;;;;;;;;;;5104016;28;20083;-56
2023/10/31 14:22:36;;;;;;;1.33;0.70;;;;;;;;;;5095906;28;20047;-55
2023/10/31 14:25:07;;;;;;;2.55;0.75;;;;;;;;;;5097404;28;20069;-56
2023/10/31 14:27:34;;;;;;;1.88;1.00;;;;;;;;;;5102112;28;20123;-65
2023/10/31 14:30:00;;;;;;;3.17;0.80;;;;;;;;;;5105186;28;20049;-57
2023/10/31 14:32:28;;;;;;;1.80;0.70;;;;;;;;;;5097038;28;20139;-56
2023/10/31 14:34:55;;;;;;;1.92;0.60;;;;;;;;;;5096583;28;20071;-53
2023/10/31 14:37:22;;;;;;;2.13;0.90;;;;;;;;;;5106953;28;20286;-56
2023/10/31 14:39:48;;;;;;;1.02;0.65;;;;;;;;;;5109729;28;20451;-53
2023/10/31 14:42:15;;;;;;;2.15;0.70;;;;;;;;;;5101651;28;20542;-56
2023/10/31 14:44:41;;;;;;;1.63;0.70;;;;;;;;;;5101060;28;20127;-56